• Join FlightAware (Why Join?)
  • Login
  • US Flag 
02:56AM EDT


 

Airport Tracker/Info


-or-


 

Live Flight TrackerFlight Track Log ✈ DAL6057 ✈ 09-Apr-2013 ✈ KCMH - KDTW

Flight Track Log - Related Links

Times and Time Zones

All times are in EDT time to prevent confusion due to time zone crossing. See the DAL6057 flight status page for this flight to view local times or setup timezone preferences in your user account.

Time Position Orientation Groundspeed Altitude Reporting Facility
EDT Latitude Longitude Course Direction KTS MPH feet Rate Location/Type
06:45AM 40.0022 -82.9128 273° West 154 177 1,300  Level Indianapolis Center
06:45AM 40.0031 -82.9319 273° West 162 186 1,900 2,040 Climbing Indianapolis Center
06:46AM 40.0047 -82.9831 272° West 177 204 3,600 2,220 Climbing Indianapolis Center
06:47AM 40.0494 -83.0003 344° North 221 254 6,000 2,160 Climbing Indianapolis Center
06:48AM 40.1058 -82.9403 39° Northeast 260 299 8,000 1,860 Climbing Indianapolis Center
06:49AM 40.1689 -82.8697 41° Northeast 293 337 9,900 1,680 Climbing Indianapolis Center
06:50AM 40.2367 -82.7947 40° Northeast 316 364 11,500 1,620 Climbing Indianapolis Center
06:51AM 40.3097 -82.7125 41° Northeast 345 397 13,200 1,620 Climbing Indianapolis Center
06:52AM 40.3858 -82.6269 41° Northeast 354 407 14,800 780 Climbing Indianapolis Center
06:53AM 40.4811 -82.5733 23° Northeast 365 420 14,900  Climbing Indianapolis Center
06:54AM 40.5819 -82.5264 19° North 377 434 14,900  Level Indianapolis Center
06:54AM 40.6389 -82.4983 20° North 370 426 14,900  Level Cleveland Center
06:55AM 40.7419 -82.4522 19° North 381 438 14,900  Level Cleveland Center
06:56AM 40.8422 -82.4247 12° North 381 438 14,900  Level Cleveland Center
06:57AM 40.9289 -82.4906 330° Northwest 348 400 15,000  Climbing Cleveland Center
06:58AM 41.0153 -82.5536 331° Northwest 348 400 15,000  Level Cleveland Center
06:59AM 41.1039 -82.6167 332° Northwest 353 406 15,000  Level Cleveland Center
07:00AM 41.1881 -82.6800 330° Northwest 348 400 15,000  Level Cleveland Center
07:01AM 41.2767 -82.7439 332° Northwest 348 400 15,000  Level Cleveland Center
07:02AM 41.3528 -82.7989 332° Northwest 348 400 15,000 -780 Level Cleveland Center
07:03AM 41.4389 -82.8628 331° Northwest 348 400 13,500 -1,500 Descending Cleveland Center
07:04AM 41.5047 -82.9122 331° Northwest 358 412 12,500 -1,320 Descending Cleveland Center
07:04AM 41.5253 -82.9239 337° Northwest 341 392 12,200 -660 Descending Cleveland Center
07:05AM 41.5850 -82.9678 331° Northwest 345 397 11,900 -300 Descending Cleveland Center
07:05AM 41.6117 -82.9856 334° Northwest 341 392 11,900  Level Cleveland Center
07:06AM 41.6650 -83.0292 329° Northwest 332 382 11,900 60 Level Cleveland Center
07:06AM 41.6978 -83.0528 332° Northwest 341 392 12,000  Climbing Cleveland Center
07:07AM 41.7489 -83.0936 329° Northwest 327 376 11,900  Descending Cleveland Center
07:07AM 41.7758 -83.1114 334° Northwest 331 381 12,000 60 Climbing Cleveland Center
07:08AM 41.8269 -83.1525 329° Northwest 325 374 12,000  Level Cleveland Center
07:08AM 41.8558 -83.1703 335° Northwest 326 375 12,000 -120 Level Cleveland Center
07:09AM 41.9089 -83.2117 330° Northwest 324 373 11,900  Descending Cleveland Center
07:09AM 41.9314 -83.2292 330° Northwest 326 375 12,000  Climbing Cleveland Center
07:10AM 41.9847 -83.2706 330° Northwest 322 371 11,900  Descending Cleveland Center
07:10AM 42.0094 -83.2883 332° Northwest 326 375 12,000  Climbing Cleveland Center
07:11AM 42.0625 -83.3297 330° Northwest 319 367 11,900  Descending Cleveland Center
07:11AM 42.0872 -83.3475 332° Northwest 326 375 12,000  Climbing Cleveland Center
07:12AM 42.1406 -83.3867 331° Northwest 267 307 11,900 -120 Descending FAA TRACON SMA TRACON (SMA)
07:12AM 42.1628 -83.4039 330° Northwest 238 274 11,900  Level FAA TRACON SMA TRACON (SMA)
07:13AM 42.1786 -83.4161 330° Northwest 227 261 11,900  Level FAA TRACON SMA TRACON (SMA)
07:13AM 42.2000 -83.4325 330° Northwest 228 262 11,900 -180 Level FAA TRACON SMA TRACON (SMA)
07:13AM 42.2142 -83.4442 329° Northwest 215 247 11,800 -1,080 Descending FAA TRACON SMA TRACON (SMA)
07:14AM 42.2344 -83.4586 332° Northwest 217 250 11,200 -1,980 Descending FAA TRACON SMA TRACON (SMA)
07:14AM 42.2508 -83.4722 328° Northwest 218 251 10,500 -1,980 Descending FAA TRACON SMA TRACON (SMA)
07:14AM 42.2675 -83.4847 331° Northwest 219 252 9,900 -1,980 Descending FAA TRACON SMA TRACON (SMA)
07:15AM 42.2917 -83.4897 351° North 254 292 9,200 -1,800 Descending FAA TRACON SMA TRACON (SMA)
07:15AM 42.3108 -83.4781 24° Northeast 246 283 8,700 -1,620 Descending FAA TRACON SMA TRACON (SMA)
07:15AM 42.3303 -83.4664 24° Northeast 248 285 8,100 -1,620 Descending FAA TRACON SMA TRACON (SMA)
07:16AM 42.3539 -83.4506 26° Northeast 248 285 7,600 -1,200 Descending FAA TRACON SMA TRACON (SMA)
07:16AM 42.3708 -83.4344 35° Northeast 245 282 7,300 -900 Descending FAA TRACON SMA TRACON (SMA)
07:16AM 42.3883 -83.4186 34° Northeast 247 284 7,000 -600 Descending FAA TRACON SMA TRACON (SMA)
07:17AM 42.4106 -83.3994 32° Northeast 248 285 6,900 -180 Descending FAA TRACON SMA TRACON (SMA)
07:17AM 42.4283 -83.3836 33° Northeast 249 287 6,900  Level FAA TRACON SMA TRACON (SMA)
07:17AM 42.4503 -83.3644 33° Northeast 245 282 6,900 -660 Level FAA TRACON SMA TRACON (SMA)
07:18AM 42.4672 -83.3492 34° Northeast 240 276 6,500 -1,560 Descending FAA TRACON SMA TRACON (SMA)
07:18AM 42.4839 -83.3342 34° Northeast 236 272 5,900 -1,680 Descending FAA TRACON SMA TRACON (SMA)
07:18AM 42.5008 -83.3192 33° Northeast 237 273 5,400 -1,980 Descending FAA TRACON SMA TRACON (SMA)
07:19AM 42.5225 -83.2994 34° Northeast 243 280 4,600 -1,680 Descending FAA TRACON SMA TRACON (SMA)
07:19AM 42.5403 -83.2839 33° Northeast 246 283 4,300 -900 Descending FAA TRACON SMA TRACON (SMA)
07:19AM 42.5575 -83.2692 32° Northeast 241 277 4,000 -600 Descending FAA TRACON SMA TRACON (SMA)
07:20AM 42.5742 -83.2472 44° Northeast 232 267 3,900 -300 Descending FAA TRACON SMA TRACON (SMA)